sensor_id;sensor_type;location;lat;lon;timestamp;temperature;humidity
25300;DHT22;13241;51.208;4.432;2023-07-13T00:01:54;17.80;99.90
25300;DHT22;13241;51.208;4.432;2023-07-13T00:04:22;17.60;99.90
25300;DHT22;13241;51.208;4.432;2023-07-13T00:06:53;17.50;99.90
25300;DHT22;13241;51.208;4.432;2023-07-13T00:09:21;17.50;99.90
25300;DHT22;13241;51.208;4.432;2023-07-13T00:11:55;17.50;99.90
25300;DHT22;13241;51.208;4.432;2023-07-13T00:14:24;17.50;99.90
25300;DHT22;13241;51.208;4.432;2023-07-13T00:16:51;17.50;99.90
25300;DHT22;13241;51.208;4.432;2023-07-13T00:19:18;17.50;99.90
25300;DHT22;13241;51.208;4.432;2023-07-13T00:21:45;17.30;99.90
25300;DHT22;13241;51.208;4.432;2023-07-13T00:24:15;17.50;99.90
25300;DHT22;13241;51.208;4.432;2023-07-13T00:26:45;17.20;99.90
25300;DHT22;13241;51.208;4.432;2023-07-13T00:29:13;17.30;99.90
25300;DHT22;13241;51.208;4.432;2023-07-13T00:31:40;17.30;99.90
25300;DHT22;13241;51.208;4.432;2023-07-13T00:34:07;17.30;99.90
25300;DHT22;13241;51.208;4.432;2023-07-13T00:36:34;17.30;99.90
25300;DHT22;13241;51.208;4.432;2023-07-13T00:39:01;17.30;99.90
25300;DHT22;13241;51.208;4.432;2023-07-13T00:41:30;17.20;99.90
25300;DHT22;13241;51.208;4.432;2023-07-13T00:43:57;17.20;99.90
25300;DHT22;13241;51.208;4.432;2023-07-13T00:46:26;17.20;99.90
25300;DHT22;13241;51.208;4.432;2023-07-13T00:48:55;17.20;99.90
25300;DHT22;13241;51.208;4.432;2023-07-13T00:51:37;17.20;99.90
25300;DHT22;13241;51.208;4.432;2023-07-13T00:54:07;17.40;99.90
25300;DHT22;13241;51.208;4.432;2023-07-13T00:56:39;17.10;99.90
25300;DHT22;13241;51.208;4.432;2023-07-13T00:59:08;17.10;99.90
25300;DHT22;13241;51.208;4.432;2023-07-13T01:01:35;17.00;99.90
25300;DHT22;13241;51.208;4.432;2023-07-13T01:04:03;17.00;99.90
25300;DHT22;13241;51.208;4.432;2023-07-13T01:06:36;17.00;99.90
25300;DHT22;13241;51.208;4.432;2023-07-13T01:09:04;17.00;99.90
25300;DHT22;13241;51.208;4.432;2023-07-13T01:11:33;17.00;99.90
25300;DHT22;13241;51.208;4.432;2023-07-13T01:14:02;16.90;99.90
25300;DHT22;13241;51.208;4.432;2023-07-13T01:16:32;16.90;99.90
25300;DHT22;13241;51.208;4.432;2023-07-13T01:18:59;16.90;99.90
25300;DHT22;13241;51.208;4.432;2023-07-13T01:21:29;16.90;99.90
25300;DHT22;13241;51.208;4.432;2023-07-13T01:23:58;17.10;99.90
25300;DHT22;13241;51.208;4.432;2023-07-13T01:26:25;16.80;99.90
25300;DHT22;13241;51.208;4.432;2023-07-13T01:28:53;16.80;99.90
25300;DHT22;13241;51.208;4.432;2023-07-13T01:31:23;16.80;99.90
25300;DHT22;13241;51.208;4.432;2023-07-13T01:33:51;16.90;99.90
25300;DHT22;13241;51.208;4.432;2023-07-13T01:36:20;16.80;99.90
25300;DHT22;13241;51.208;4.432;2023-07-13T01:38:47;16.90;99.90
25300;DHT22;13241;51.208;4.432;2023-07-13T01:41:15;16.90;99.90
25300;DHT22;13241;51.208;4.432;2023-07-13T01:43:41;16.90;99.90
25300;DHT22;13241;51.208;4.432;2023-07-13T01:46:08;16.90;99.90
25300;DHT22;13241;51.208;4.432;2023-07-13T01:48:42;16.90;99.90
25300;DHT22;13241;51.208;4.432;2023-07-13T01:51:09;16.90;99.90
25300;DHT22;13241;51.208;4.432;2023-07-13T01:53:36;16.90;99.90
25300;DHT22;13241;51.208;4.432;2023-07-13T01:56:03;16.90;99.90
25300;DHT22;13241;51.208;4.432;2023-07-13T01:58:30;16.90;99.90
25300;DHT22;13241;51.208;4.432;2023-07-13T02:00:57;16.80;99.90
25300;DHT22;13241;51.208;4.432;2023-07-13T02:03:24;16.80;99.90
25300;DHT22;13241;51.208;4.432;2023-07-13T02:05:51;16.70;99.90
25300;DHT22;13241;51.208;4.432;2023-07-13T02:08:18;16.70;99.90
25300;DHT22;13241;51.208;4.432;2023-07-13T02:10:46;16.60;99.90
25300;DHT22;13241;51.208;4.432;2023-07-13T02:13:13;16.70;99.90
25300;DHT22;13241;51.208;4.432;2023-07-13T02:15:40;16.60;99.90
25300;DHT22;13241;51.208;4.432;2023-07-13T02:18:10;16.60;99.90
25300;DHT22;13241;51.208;4.432;2023-07-13T02:20:36;16.50;99.90
25300;DHT22;13241;51.208;4.432;2023-07-13T02:23:03;16.50;99.90
25300;DHT22;13241;51.208;4.432;2023-07-13T02:25:33;16.60;99.90
25300;DHT22;13241;51.208;4.432;2023-07-13T02:28:00;16.50;99.90
25300;DHT22;13241;51.208;4.432;2023-07-13T02:30:28;16.60;99.90
25300;DHT22;13241;51.208;4.432;2023-07-13T02:32:57;16.50;99.90
25300;DHT22;13241;51.208;4.432;2023-07-13T02:35:24;16.50;99.90
25300;DHT22;13241;51.208;4.432;2023-07-13T02:37:51;16.50;99.90
25300;DHT22;13241;51.208;4.432;2023-07-13T02:40:18;16.60;99.90
25300;DHT22;13241;51.208;4.432;2023-07-13T02:42:45;16.70;99.90
25300;DHT22;13241;51.208;4.432;2023-07-13T02:45:12;16.70;99.90
25300;DHT22;13241;51.208;4.432;2023-07-13T02:47:41;16.90;99.90
25300;DHT22;13241;51.208;4.432;2023-07-13T02:50:08;16.90;99.90
25300;DHT22;13241;51.208;4.432;2023-07-13T02:52:35;16.90;99.90
25300;DHT22;13241;51.208;4.432;2023-07-13T02:55:02;16.90;99.90
25300;DHT22;13241;51.208;4.432;2023-07-13T02:57:29;16.90;99.90
25300;DHT22;13241;51.208;4.432;2023-07-13T02:59:57;16.90;99.90
25300;DHT22;13241;51.208;4.432;2023-07-13T03:02:24;17.00;99.90
25300;DHT22;13241;51.208;4.432;2023-07-13T03:04:51;16.90;99.90
25300;DHT22;13241;51.208;4.432;2023-07-13T03:07:18;16.90;99.90
25300;DHT22;13241;51.208;4.432;2023-07-13T03:09:48;17.00;99.90
25300;DHT22;13241;51.208;4.432;2023-07-13T03:12:15;17.10;99.90
25300;DHT22;13241;51.208;4.432;2023-07-13T03:14:42;17.10;99.90
25300;DHT22;13241;51.208;4.432;2023-07-13T03:17:09;17.10;99.90
25300;DHT22;13241;51.208;4.432;2023-07-13T03:19:39;17.10;99.90
25300;DHT22;13241;51.208;4.432;2023-07-13T03:22:06;17.00;99.90
25300;DHT22;13241;51.208;4.432;2023-07-13T03:24:34;17.30;99.90
25300;DHT22;13241;51.208;4.432;2023-07-13T03:27:06;17.20;99.90
25300;DHT22;13241;51.208;4.432;2023-07-13T03:29:36;17.10;99.90
25300;DHT22;13241;51.208;4.432;2023-07-13T03:32:04;17.30;99.90
25300;DHT22;13241;51.208;4.432;2023-07-13T03:34:31;17.20;99.90
25300;DHT22;13241;51.208;4.432;2023-07-13T03:37:00;17.20;99.90
25300;DHT22;13241;51.208;4.432;2023-07-13T03:39:27;17.30;99.90
25300;DHT22;13241;51.208;4.432;2023-07-13T03:41:56;17.20;99.90
25300;DHT22;13241;51.208;4.432;2023-07-13T03:44:24;17.20;99.90
25300;DHT22;13241;51.208;4.432;2023-07-13T03:46:54;17.20;99.90
25300;DHT22;13241;51.208;4.432;2023-07-13T03:49:23;17.20;99.90
25300;DHT22;13241;51.208;4.432;2023-07-13T03:51:50;17.20;99.90
25300;DHT22;13241;51.208;4.432;2023-07-13T03:54:20;17.20;99.90
25300;DHT22;13241;51.208;4.432;2023-07-13T03:56:47;17.20;99.90
25300;DHT22;13241;51.208;4.432;2023-07-13T03:59:17;17.20;99.90
25300;DHT22;13241;51.208;4.432;2023-07-13T04:01:45;17.40;99.90
25300;DHT22;13241;51.208;4.432;2023-07-13T04:04:12;17.30;99.90
25300;DHT22;13241;51.208;4.432;2023-07-13T04:06:39;17.20;99.90
25300;DHT22;13241;51.208;4.432;2023-07-13T04:09:06;17.30;99.90
25300;DHT22;13241;51.208;4.432;2023-07-13T04:11:34;17.30;99.90
25300;DHT22;13241;51.208;4.432;2023-07-13T04:14:03;17.40;99.90
25300;DHT22;13241;51.208;4.432;2023-07-13T04:16:30;17.40;99.90
25300;DHT22;13241;51.208;4.432;2023-07-13T04:18:58;17.40;99.90
25300;DHT22;13241;51.208;4.432;2023-07-13T04:21:29;17.20;99.90
25300;DHT22;13241;51.208;4.432;2023-07-13T04:23:57;17.50;99.90
25300;DHT22;13241;51.208;4.432;2023-07-13T04:26:27;17.30;99.90
25300;DHT22;13241;51.208;4.432;2023-07-13T04:28:56;17.40;99.90
25300;DHT22;13241;51.208;4.432;2023-07-13T04:31:23;17.50;99.90
25300;DHT22;13241;51.208;4.432;2023-07-13T04:33:53;17.40;99.90
25300;DHT22;13241;51.208;4.432;2023-07-13T04:36:20;17.40;99.90
25300;DHT22;13241;51.208;4.432;2023-07-13T04:38:48;17.50;99.90
25300;DHT22;13241;51.208;4.432;2023-07-13T04:41:15;17.50;99.90
25300;DHT22;13241;51.208;4.432;2023-07-13T04:43:42;17.60;99.90
25300;DHT22;13241;51.208;4.432;2023-07-13T04:46:12;17.50;99.90
25300;DHT22;13241;51.208;4.432;2023-07-13T04:48:39;17.50;99.90
25300;DHT22;13241;51.208;4.432;2023-07-13T04:51:07;17.50;99.90
25300;DHT22;13241;51.208;4.432;2023-07-13T04:53:34;17.60;99.90
25300;DHT22;13241;51.208;4.432;2023-07-13T04:56:02;17.50;99.90
25300;DHT22;13241;51.208;4.432;2023-07-13T04:58:35;17.60;99.90
25300;DHT22;13241;51.208;4.432;2023-07-13T05:01:04;17.80;99.90
25300;DHT22;13241;51.208;4.432;2023-07-13T05:03:32;17.70;99.90
25300;DHT22;13241;51.208;4.432;2023-07-13T05:06:02;17.70;99.90
25300;DHT22;13241;51.208;4.432;2023-07-13T05:08:29;17.80;99.90
25300;DHT22;13241;51.208;4.432;2023-07-13T05:10:56;17.90;99.90
25300;DHT22;13241;51.208;4.432;2023-07-13T05:13:23;17.90;99.90
25300;DHT22;13241;51.208;4.432;2023-07-13T05:16:00;18.00;99.90
25300;DHT22;13241;51.208;4.432;2023-07-13T05:18:28;18.10;99.90
25300;DHT22;13241;51.208;4.432;2023-07-13T05:21:03;18.10;99.90
25300;DHT22;13241;51.208;4.432;2023-07-13T05:23:31;18.10;99.90
25300;DHT22;13241;51.208;4.432;2023-07-13T05:25:58;18.10;99.90
25300;DHT22;13241;51.208;4.432;2023-07-13T05:28:26;18.20;99.90
25300;DHT22;13241;51.208;4.432;2023-07-13T05:30:54;18.00;99.90
25300;DHT22;13241;51.208;4.432;2023-07-13T05:33:22;18.10;99.90
25300;DHT22;13241;51.208;4.432;2023-07-13T05:35:50;18.10;99.90
25300;DHT22;13241;51.208;4.432;2023-07-13T05:38:16;18.20;99.90
25300;DHT22;13241;51.208;4.432;2023-07-13T05:40:44;18.30;99.90
25300;DHT22;13241;51.208;4.432;2023-07-13T05:43:12;18.40;99.90
25300;DHT22;13241;51.208;4.432;2023-07-13T05:45:39;18.40;99.90
25300;DHT22;13241;51.208;4.432;2023-07-13T05:48:06;18.30;99.90
25300;DHT22;13241;51.208;4.432;2023-07-13T05:50:33;18.30;99.90
25300;DHT22;13241;51.208;4.432;2023-07-13T05:52:59;18.40;99.90
25300;DHT22;13241;51.208;4.432;2023-07-13T05:55:26;18.40;99.90
25300;DHT22;13241;51.208;4.432;2023-07-13T05:57:53;18.50;99.90
25300;DHT22;13241;51.208;4.432;2023-07-13T06:00:20;18.50;99.90
25300;DHT22;13241;51.208;4.432;2023-07-13T06:02:47;18.60;99.90
25300;DHT22;13241;51.208;4.432;2023-07-13T06:05:14;18.60;99.90
25300;DHT22;13241;51.208;4.432;2023-07-13T06:07:41;18.60;99.90
25300;DHT22;13241;51.208;4.432;2023-07-13T06:10:09;18.50;99.90
25300;DHT22;13241;51.208;4.432;2023-07-13T06:12:36;18.50;99.90
25300;DHT22;13241;51.208;4.432;2023-07-13T06:15:03;18.60;99.90
25300;DHT22;13241;51.208;4.432;2023-07-13T06:17:30;18.70;99.90
25300;DHT22;13241;51.208;4.432;2023-07-13T06:19:57;18.70;99.90
25300;DHT22;13241;51.208;4.432;2023-07-13T06:22:24;18.70;99.90
25300;DHT22;13241;51.208;4.432;2023-07-13T06:24:52;18.90;99.90
25300;DHT22;13241;51.208;4.432;2023-07-13T06:27:19;19.10;99.90
25300;DHT22;13241;51.208;4.432;2023-07-13T06:29:48;19.10;99.90
25300;DHT22;13241;51.208;4.432;2023-07-13T06:32:15;19.10;99.90
25300;DHT22;13241;51.208;4.432;2023-07-13T06:34:42;18.90;99.90
25300;DHT22;13241;51.208;4.432;2023-07-13T06:37:10;19.10;99.90
25300;DHT22;13241;51.208;4.432;2023-07-13T06:39:36;19.10;99.90
25300;DHT22;13241;51.208;4.432;2023-07-13T06:42:04;19.00;99.90
25300;DHT22;13241;51.208;4.432;2023-07-13T06:44:31;19.10;99.90
25300;DHT22;13241;51.208;4.432;2023-07-13T06:46:58;19.10;99.90
25300;DHT22;13241;51.208;4.432;2023-07-13T06:49:25;19.00;99.90
25300;DHT22;13241;51.208;4.432;2023-07-13T06:51:52;19.10;99.90
25300;DHT22;13241;51.208;4.432;2023-07-13T06:54:20;19.10;99.90
25300;DHT22;13241;51.208;4.432;2023-07-13T06:56:47;19.20;99.90
25300;DHT22;13241;51.208;4.432;2023-07-13T06:59:14;19.30;99.90
25300;DHT22;13241;51.208;4.432;2023-07-13T07:01:41;19.50;99.90
25300;DHT22;13241;51.208;4.432;2023-07-13T07:04:08;19.70;99.90
25300;DHT22;13241;51.208;4.432;2023-07-13T07:06:35;19.70;99.90
25300;DHT22;13241;51.208;4.432;2023-07-13T07:09:02;19.80;99.90
25300;DHT22;13241;51.208;4.432;2023-07-13T07:11:29;20.00;99.90
25300;DHT22;13241;51.208;4.432;2023-07-13T07:13:56;20.30;99.90
25300;DHT22;13241;51.208;4.432;2023-07-13T07:16:24;20.60;99.90
25300;DHT22;13241;51.208;4.432;2023-07-13T07:18:51;20.70;99.90
25300;DHT22;13241;51.208;4.432;2023-07-13T07:21:18;20.90;99.90
25300;DHT22;13241;51.208;4.432;2023-07-13T07:23:45;21.20;99.90
25300;DHT22;13241;51.208;4.432;2023-07-13T07:26:12;21.30;99.90
25300;DHT22;13241;51.208;4.432;2023-07-13T07:28:39;21.60;99.90
25300;DHT22;13241;51.208;4.432;2023-07-13T07:31:08;21.70;99.90
25300;DHT22;13241;51.208;4.432;2023-07-13T07:33:38;21.90;99.90
25300;DHT22;13241;51.208;4.432;2023-07-13T07:36:05;21.90;99.90
25300;DHT22;13241;51.208;4.432;2023-07-13T07:38:35;21.70;99.90
25300;DHT22;13241;51.208;4.432;2023-07-13T07:41:04;21.60;99.90
25300;DHT22;13241;51.208;4.432;2023-07-13T07:43:34;21.50;99.90
25300;DHT22;13241;51.208;4.432;2023-07-13T07:46:02;21.50;99.90
25300;DHT22;13241;51.208;4.432;2023-07-13T07:48:30;21.50;99.90
25300;DHT22;13241;51.208;4.432;2023-07-13T07:50:57;21.80;99.90
25300;DHT22;13241;51.208;4.432;2023-07-13T07:53:24;21.90;99.90
25300;DHT22;13241;51.208;4.432;2023-07-13T07:55:51;22.00;99.90
25300;DHT22;13241;51.208;4.432;2023-07-13T07:58:21;21.60;99.90
25300;DHT22;13241;51.208;4.432;2023-07-13T08:00:51;21.50;99.90
25300;DHT22;13241;51.208;4.432;2023-07-13T08:03:21;21.30;99.90
25300;DHT22;13241;51.208;4.432;2023-07-13T08:05:53;21.10;99.90
25300;DHT22;13241;51.208;4.432;2023-07-13T08:08:24;21.10;99.90
25300;DHT22;13241;51.208;4.432;2023-07-13T08:10:52;21.40;99.90
25300;DHT22;13241;51.208;4.432;2023-07-13T08:13:25;21.60;99.90
25300;DHT22;13241;51.208;4.432;2023-07-13T08:15:52;21.80;99.90
25300;DHT22;13241;51.208;4.432;2023-07-13T08:18:19;21.80;99.90
25300;DHT22;13241;51.208;4.432;2023-07-13T08:20:46;22.00;99.90
25300;DHT22;13241;51.208;4.432;2023-07-13T08:23:12;22.00;99.90
25300;DHT22;13241;51.208;4.432;2023-07-13T08:25:39;22.40;99.90
25300;DHT22;13241;51.208;4.432;2023-07-13T08:28:06;22.50;99.90
25300;DHT22;13241;51.208;4.432;2023-07-13T08:30:33;22.60;99.90
25300;DHT22;13241;51.208;4.432;2023-07-13T08:33:00;22.50;99.90
25300;DHT22;13241;51.208;4.432;2023-07-13T08:35:28;22.30;99.90
25300;DHT22;13241;51.208;4.432;2023-07-13T08:37:55;22.30;99.90
25300;DHT22;13241;51.208;4.432;2023-07-13T08:40:25;22.20;99.90
25300;DHT22;13241;51.208;4.432;2023-07-13T08:43:13;22.50;99.90
25300;DHT22;13241;51.208;4.432;2023-07-13T08:45:52;22.50;99.90
25300;DHT22;13241;51.208;4.432;2023-07-13T08:48:31;22.40;99.90
25300;DHT22;13241;51.208;4.432;2023-07-13T08:53:49;22.50;99.90
25300;DHT22;13241;51.208;4.432;2023-07-13T08:56:28;22.80;99.90
25300;DHT22;13241;51.208;4.432;2023-07-13T08:58:58;23.20;99.90
25300;DHT22;13241;51.208;4.432;2023-07-13T09:04:25;23.30;99.90
25300;DHT22;13241;51.208;4.432;2023-07-13T09:07:05;23.40;99.90
25300;DHT22;13241;51.208;4.432;2023-07-13T09:12:17;23.30;99.90
25300;DHT22;13241;51.208;4.432;2023-07-13T09:14:49;23.60;99.90
25300;DHT22;13241;51.208;4.432;2023-07-13T09:17:25;24.00;99.90
25300;DHT22;13241;51.208;4.432;2023-07-13T09:19:59;24.40;99.90
25300;DHT22;13241;51.208;4.432;2023-07-13T09:22:33;24.30;99.90
25300;DHT22;13241;51.208;4.432;2023-07-13T09:25:31;24.20;99.90
25300;DHT22;13241;51.208;4.432;2023-07-13T09:31:03;23.50;99.90
25300;DHT22;13241;51.208;4.432;2023-07-13T09:33:32;23.20;99.90
25300;DHT22;13241;51.208;4.432;2023-07-13T09:35:59;23.00;99.90
25300;DHT22;13241;51.208;4.432;2023-07-13T09:38:29;22.80;99.90
25300;DHT22;13241;51.208;4.432;2023-07-13T09:41:14;22.80;99.90
25300;DHT22;13241;51.208;4.432;2023-07-13T09:46:46;22.60;99.90
25300;DHT22;13241;51.208;4.432;2023-07-13T09:49:15;22.40;99.90
25300;DHT22;13241;51.208;4.432;2023-07-13T09:51:42;22.40;99.90
25300;DHT22;13241;51.208;4.432;2023-07-13T09:54:22;22.30;99.90
25300;DHT22;13241;51.208;4.432;2023-07-13T09:56:58;22.00;99.90
25300;DHT22;13241;51.208;4.432;2023-07-13T09:59:32;21.70;99.90
25300;DHT22;13241;51.208;4.432;2023-07-13T10:02:01;21.50;99.90
25300;DHT22;13241;51.208;4.432;2023-07-13T10:04:33;21.40;99.90
25300;DHT22;13241;51.208;4.432;2023-07-13T10:07:12;21.30;99.90
25300;DHT22;13241;51.208;4.432;2023-07-13T10:09:55;21.30;99.90
25300;DHT22;13241;51.208;4.432;2023-07-13T10:12:24;21.30;99.90
25300;DHT22;13241;51.208;4.432;2023-07-13T10:15:00;21.20;99.90
25300;DHT22;13241;51.208;4.432;2023-07-13T10:17:48;21.60;99.90
25300;DHT22;13241;51.208;4.432;2023-07-13T10:20:17;22.10;99.90
25300;DHT22;13241;51.208;4.432;2023-07-13T10:23:01;22.50;99.90
25300;DHT22;13241;51.208;4.432;2023-07-13T10:25:33;22.70;99.90
25300;DHT22;13241;51.208;4.432;2023-07-13T10:30:53;23.30;99.90
25300;DHT22;13241;51.208;4.432;2023-07-13T10:33:23;23.70;99.90
25300;DHT22;13241;51.208;4.432;2023-07-13T10:36:03;24.00;99.90
25300;DHT22;13241;51.208;4.432;2023-07-13T10:38:32;24.10;99.90
25300;DHT22;13241;51.208;4.432;2023-07-13T10:41:06;24.30;99.90
25300;DHT22;13241;51.208;4.432;2023-07-13T10:43:55;24.90;99.90
25300;DHT22;13241;51.208;4.432;2023-07-13T10:46:25;25.30;99.90
25300;DHT22;13241;51.208;4.432;2023-07-13T10:48:57;25.40;99.90
25300;DHT22;13241;51.208;4.432;2023-07-13T10:51:26;25.50;99.90
25300;DHT22;13241;51.208;4.432;2023-07-13T10:54:19;25.70;99.90
25300;DHT22;13241;51.208;4.432;2023-07-13T10:57:06;26.00;99.90
25300;DHT22;13241;51.208;4.432;2023-07-13T10:59:35;26.30;99.90
25300;DHT22;13241;51.208;4.432;2023-07-13T11:04:44;26.50;99.90
25300;DHT22;13241;51.208;4.432;2023-07-13T11:07:25;26.30;99.90
25300;DHT22;13241;51.208;4.432;2023-07-13T11:09:54;25.90;99.90
25300;DHT22;13241;51.208;4.432;2023-07-13T11:17:49;25.30;99.90
25300;DHT22;13241;51.208;4.432;2023-07-13T11:25:38;25.30;99.90
25300;DHT22;13241;51.208;4.432;2023-07-13T11:30:40;24.30;99.90
25300;DHT22;13241;51.208;4.432;2023-07-13T11:33:24;23.80;99.90
25300;DHT22;13241;51.208;4.432;2023-07-13T11:36:04;22.40;99.90
25300;DHT22;13241;51.208;4.432;2023-07-13T11:38:51;21.30;99.90
25300;DHT22;13241;51.208;4.432;2023-07-13T11:41:25;20.70;99.90
25300;DHT22;13241;51.208;4.432;2023-07-13T11:44:02;20.20;99.90
25300;DHT22;13241;51.208;4.432;2023-07-13T11:46:31;19.90;99.90
25300;DHT22;13241;51.208;4.432;2023-07-13T11:49:00;19.50;99.90
25300;DHT22;13241;51.208;4.432;2023-07-13T11:51:34;19.40;99.90
